Aviation Digital Data Service (ADDS)

Output produced by METARs form (1243 UTC 25 July 2017)
found at http://bcaws.aviationweather.gov/adds/metars/
 
METAR text: KSQL 251230Z AUTO 31004KT 10SM OVC013 17/13 A2991 RMK AO2
Conditions at: KSQL (SAN CARLOS AIRPO, CA, US) observed 1230 UTC 25 July 2017
Temperature: 17.0°C (63°F)
Dewpoint: 13.0°C (55°F) [RH = 77%]
Pressure (altimeter): 29.91 inches Hg (1013.0 mb)
Winds: from the NW (310 degrees) at 5 MPH (4 knots; 2.1 m/s)
Visibility: 10 or more miles (16+ km)
Ceiling: 1300 feet AGL
Clouds: overcast cloud deck at 1300 feet AGL
Weather: automated observation with no human augmentation;
there may or may not be significant weather present at this time